sensor_id;sensor_type;location;lat;lon;timestamp;pressure;altitude;pressure_sealevel;temperature;humidity
45040;BME280;30778;53.574;7.770;2022-07-29T00:01:20;102038.97;;;12.57;47.92
45040;BME280;30778;53.574;7.770;2022-07-29T00:03:46;102045.19;;;12.55;47.73
45040;BME280;30778;53.574;7.770;2022-07-29T00:06:13;102036.63;;;12.48;48.38
45040;BME280;30778;53.574;7.770;2022-07-29T00:08:39;102039.16;;;12.51;48.16
45040;BME280;30778;53.574;7.770;2022-07-29T00:11:04;102035.81;;;12.46;48.47
45040;BME280;30778;53.574;7.770;2022-07-29T00:13:30;102033.84;;;12.54;48.33
45040;BME280;30778;53.574;7.770;2022-07-29T00:15:55;102027.91;;;12.47;48.65
45040;BME280;30778;53.574;7.770;2022-07-29T00:18:21;102032.22;;;12.50;48.90
45040;BME280;30778;53.574;7.770;2022-07-29T00:20:46;102027.06;;;12.47;49.14
45040;BME280;30778;53.574;7.770;2022-07-29T00:23:12;102028.59;;;12.54;48.86
45040;BME280;30778;53.574;7.770;2022-07-29T00:25:37;102031.25;;;12.53;49.31
45040;BME280;30778;53.574;7.770;2022-07-29T00:28:03;102033.66;;;12.60;49.20
45040;BME280;30778;53.574;7.770;2022-07-29T00:30:28;102030.28;;;12.55;49.55
45040;BME280;30778;53.574;7.770;2022-07-29T00:32:54;102035.31;;;12.63;49.35
45040;BME280;30778;53.574;7.770;2022-07-29T00:35:19;102028.41;;;12.60;49.50
45040;BME280;30778;53.574;7.770;2022-07-29T00:38:03;102026.41;;;12.68;49.19
45040;BME280;30778;53.574;7.770;2022-07-29T00:40:29;102029.03;;;12.68;49.20
45040;BME280;30778;53.574;7.770;2022-07-29T00:42:54;102015.38;;;12.57;49.50
45040;BME280;30778;53.574;7.770;2022-07-29T00:45:19;102026.25;;;12.75;49.03
45040;BME280;30778;53.574;7.770;2022-07-29T00:47:46;102022.81;;;12.73;48.91
45040;BME280;30778;53.574;7.770;2022-07-29T00:50:13;102021.25;;;12.65;49.27
45040;BME280;30778;53.574;7.770;2022-07-29T00:52:39;102010.84;;;12.62;49.65
45040;BME280;30778;53.574;7.770;2022-07-29T00:55:07;102019.38;;;12.70;49.03
45040;BME280;30778;53.574;7.770;2022-07-29T00:57:34;102009.50;;;12.79;48.59
45040;BME280;30778;53.574;7.770;2022-07-29T00:59:59;102003.34;;;12.80;48.38
45040;BME280;30778;53.574;7.770;2022-07-29T01:02:25;102009.59;;;12.76;48.52
45040;BME280;30778;53.574;7.770;2022-07-29T01:04:51;102009.75;;;12.71;48.73
45040;BME280;30778;53.574;7.770;2022-07-29T01:07:17;102001.88;;;12.71;48.57
45040;BME280;30778;53.574;7.770;2022-07-29T01:09:44;101998.88;;;12.83;48.57
45040;BME280;30778;53.574;7.770;2022-07-29T01:12:16;102002.34;;;12.84;48.57
45040;BME280;30778;53.574;7.770;2022-07-29T01:14:43;101991.91;;;12.82;48.27
45040;BME280;30778;53.574;7.770;2022-07-29T01:17:13;101988.56;;;12.77;48.53
45040;BME280;30778;53.574;7.770;2022-07-29T01:25:05;101986.25;;;12.66;49.14
45040;BME280;30778;53.574;7.770;2022-07-29T01:27:51;101976.66;;;12.65;49.07
45040;BME280;30778;53.574;7.770;2022-07-29T01:30:24;101974.69;;;12.44;49.47
45040;BME280;30778;53.574;7.770;2022-07-29T01:32:54;101970.59;;;12.63;49.20
45040;BME280;30778;53.574;7.770;2022-07-29T01:35:33;101969.91;;;12.58;49.11
45040;BME280;30778;53.574;7.770;2022-07-29T01:38:11;101965.25;;;12.66;49.25
45040;BME280;30778;53.574;7.770;2022-07-29T01:40:46;101963.75;;;12.59;49.23
45040;BME280;30778;53.574;7.770;2022-07-29T01:43:17;101959.19;;;12.64;49.48
45040;BME280;30778;53.574;7.770;2022-07-29T01:45:47;101959.84;;;12.73;48.85
45040;BME280;30778;53.574;7.770;2022-07-29T01:48:58;101957.09;;;12.77;48.58
45040;BME280;30778;53.574;7.770;2022-07-29T01:51:31;101944.88;;;12.76;48.31
45040;BME280;30778;53.574;7.770;2022-07-29T01:54:13;101950.72;;;12.84;48.24
45040;BME280;30778;53.574;7.770;2022-07-29T01:56:39;101943.16;;;12.75;48.69
45040;BME280;30778;53.574;7.770;2022-07-29T01:59:08;101951.19;;;12.70;48.63
45040;BME280;30778;53.574;7.770;2022-07-29T02:01:36;101943.09;;;12.78;48.58
45040;BME280;30778;53.574;7.770;2022-07-29T02:04:03;101938.13;;;12.67;49.05
45040;BME280;30778;53.574;7.770;2022-07-29T02:06:32;101936.09;;;12.77;48.40
45040;BME280;30778;53.574;7.770;2022-07-29T02:08:59;101934.47;;;12.73;48.74
45040;BME280;30778;53.574;7.770;2022-07-29T02:11:25;101931.81;;;12.75;48.66
45040;BME280;30778;53.574;7.770;2022-07-29T02:13:52;101929.41;;;12.67;48.89
45040;BME280;30778;53.574;7.770;2022-07-29T02:16:21;101928.09;;;12.54;49.26
45040;BME280;30778;53.574;7.770;2022-07-29T02:18:49;101922.41;;;12.67;48.63
45040;BME280;30778;53.574;7.770;2022-07-29T02:21:21;101919.00;;;12.64;49.00
45040;BME280;30778;53.574;7.770;2022-07-29T02:23:49;101921.44;;;12.72;48.56
45040;BME280;30778;53.574;7.770;2022-07-29T02:26:18;101919.84;;;12.64;49.07
45040;BME280;30778;53.574;7.770;2022-07-29T02:28:46;101911.13;;;12.64;48.97
45040;BME280;30778;53.574;7.770;2022-07-29T02:31:13;101922.19;;;12.47;49.52
45040;BME280;30778;53.574;7.770;2022-07-29T02:33:40;101912.91;;;12.63;49.02
45040;BME280;30778;53.574;7.770;2022-07-29T02:36:07;101909.97;;;12.46;49.53
45040;BME280;30778;53.574;7.770;2022-07-29T02:38:34;101906.09;;;12.58;49.02
45040;BME280;30778;53.574;7.770;2022-07-29T02:41:42;101908.34;;;12.42;49.64
45040;BME280;30778;53.574;7.770;2022-07-29T02:44:11;101910.47;;;12.57;49.12
45040;BME280;30778;53.574;7.770;2022-07-29T02:46:42;101913.91;;;12.59;49.10
45040;BME280;30778;53.574;7.770;2022-07-29T02:49:09;101919.69;;;12.70;48.83
45040;BME280;30778;53.574;7.770;2022-07-29T02:51:53;101920.16;;;12.55;49.19
45040;BME280;30778;53.574;7.770;2022-07-29T02:54:37;101912.09;;;12.61;48.96
45040;BME280;30778;53.574;7.770;2022-07-29T02:57:19;101918.19;;;12.62;48.89
45040;BME280;30778;53.574;7.770;2022-07-29T02:59:48;101920.94;;;12.59;49.12
45040;BME280;30778;53.574;7.770;2022-07-29T03:02:15;101922.88;;;12.52;49.23
45040;BME280;30778;53.574;7.770;2022-07-29T03:04:42;101917.88;;;12.44;49.37
45040;BME280;30778;53.574;7.770;2022-07-29T03:07:09;101919.44;;;12.50;49.24
45040;BME280;30778;53.574;7.770;2022-07-29T03:09:36;101907.31;;;12.47;49.33
45040;BME280;30778;53.574;7.770;2022-07-29T03:12:02;101906.72;;;12.38;49.72
45040;BME280;30778;53.574;7.770;2022-07-29T03:14:30;101906.72;;;12.38;49.64
45040;BME280;30778;53.574;7.770;2022-07-29T03:16:56;101904.81;;;12.43;49.36
45040;BME280;30778;53.574;7.770;2022-07-29T03:19:22;101899.91;;;12.32;49.82
45040;BME280;30778;53.574;7.770;2022-07-29T03:21:48;101901.56;;;12.35;49.74
45040;BME280;30778;53.574;7.770;2022-07-29T03:24:43;101903.09;;;12.42;49.51
45040;BME280;30778;53.574;7.770;2022-07-29T03:27:09;101903.69;;;12.52;49.05
45040;BME280;30778;53.574;7.770;2022-07-29T03:29:34;101906.03;;;12.59;48.96
45040;BME280;30778;53.574;7.770;2022-07-29T03:32:05;101899.78;;;12.63;48.83
45040;BME280;30778;53.574;7.770;2022-07-29T03:34:30;101904.94;;;12.66;48.71
45040;BME280;30778;53.574;7.770;2022-07-29T03:36:56;101900.59;;;12.65;48.49
45040;BME280;30778;53.574;7.770;2022-07-29T03:39:23;101891.16;;;12.60;49.03
45040;BME280;30778;53.574;7.770;2022-07-29T03:41:53;101901.00;;;12.53;48.68
45040;BME280;30778;53.574;7.770;2022-07-29T03:44:20;101893.13;;;12.53;48.67
45040;BME280;30778;53.574;7.770;2022-07-29T03:46:48;101894.69;;;12.59;48.71
45040;BME280;30778;53.574;7.770;2022-07-29T03:49:16;101889.34;;;12.62;48.69
45040;BME280;30778;53.574;7.770;2022-07-29T03:51:43;101885.22;;;12.55;48.58
45040;BME280;30778;53.574;7.770;2022-07-29T03:54:08;101889.41;;;12.60;48.45
45040;BME280;30778;53.574;7.770;2022-07-29T03:56:38;101885.88;;;12.61;48.32
45040;BME280;30778;53.574;7.770;2022-07-29T03:59:05;101888.50;;;12.61;48.54
45040;BME280;30778;53.574;7.770;2022-07-29T04:01:33;101877.31;;;12.56;48.58
45040;BME280;30778;53.574;7.770;2022-07-29T04:04:00;101878.13;;;12.58;48.51
45040;BME280;30778;53.574;7.770;2022-07-29T04:06:26;101877.41;;;12.80;47.85
45040;BME280;30778;53.574;7.770;2022-07-29T04:08:51;101886.03;;;12.85;47.94
45040;BME280;30778;53.574;7.770;2022-07-29T04:11:17;101884.16;;;12.87;47.87
45040;BME280;30778;53.574;7.770;2022-07-29T04:13:42;101887.69;;;12.87;48.00
45040;BME280;30778;53.574;7.770;2022-07-29T04:16:08;101880.63;;;12.89;47.44
45040;BME280;30778;53.574;7.770;2022-07-29T04:18:33;101877.72;;;12.70;48.29
45040;BME280;30778;53.574;7.770;2022-07-29T04:20:59;101870.56;;;12.76;48.21
45040;BME280;30778;53.574;7.770;2022-07-29T04:23:32;101868.06;;;12.73;48.55
45040;BME280;30778;53.574;7.770;2022-07-29T04:26:00;101867.34;;;12.66;48.42
45040;BME280;30778;53.574;7.770;2022-07-29T04:28:26;101865.22;;;12.79;48.51
45040;BME280;30778;53.574;7.770;2022-07-29T04:30:52;101872.75;;;12.89;48.29
45040;BME280;30778;53.574;7.770;2022-07-29T04:33:17;101873.31;;;12.98;48.05
45040;BME280;30778;53.574;7.770;2022-07-29T04:35:43;101862.44;;;13.08;47.46
45040;BME280;30778;53.574;7.770;2022-07-29T04:38:08;101870.44;;;13.05;47.79
45040;BME280;30778;53.574;7.770;2022-07-29T04:40:34;101870.00;;;13.18;47.69
45040;BME280;30778;53.574;7.770;2022-07-29T04:43:00;101879.28;;;13.28;47.15
45040;BME280;30778;53.574;7.770;2022-07-29T04:45:27;101878.63;;;13.21;47.38
45040;BME280;30778;53.574;7.770;2022-07-29T04:47:53;101883.56;;;13.05;47.51
45040;BME280;30778;53.574;7.770;2022-07-29T04:50:19;101872.59;;;13.19;46.82
45040;BME280;30778;53.574;7.770;2022-07-29T04:52:44;101870.13;;;13.38;46.07
45040;BME280;30778;53.574;7.770;2022-07-29T04:55:10;101870.09;;;13.40;46.09
45040;BME280;30778;53.574;7.770;2022-07-29T04:57:35;101863.78;;;13.45;45.75
45040;BME280;30778;53.574;7.770;2022-07-29T05:00:02;101878.81;;;13.40;46.06
45040;BME280;30778;53.574;7.770;2022-07-29T05:02:28;101869.53;;;13.55;45.83
45040;BME280;30778;53.574;7.770;2022-07-29T05:04:53;101877.28;;;13.60;45.35
45040;BME280;30778;53.574;7.770;2022-07-29T05:07:19;101869.91;;;13.69;45.50
45040;BME280;30778;53.574;7.770;2022-07-29T05:09:44;101875.25;;;13.68;45.11
45040;BME280;30778;53.574;7.770;2022-07-29T05:12:10;101870.63;;;13.75;44.94
45040;BME280;30778;53.574;7.770;2022-07-29T05:14:36;101870.44;;;13.79;44.94
45040;BME280;30778;53.574;7.770;2022-07-29T05:17:01;101868.09;;;13.71;44.76
45040;BME280;30778;53.574;7.770;2022-07-29T05:19:26;101874.84;;;13.79;44.87
45040;BME280;30778;53.574;7.770;2022-07-29T05:21:52;101874.38;;;13.91;44.19
45040;BME280;30778;53.574;7.770;2022-07-29T05:24:17;101872.03;;;13.83;44.79
45040;BME280;30778;53.574;7.770;2022-07-29T05:26:43;101864.38;;;13.77;44.46
45040;BME280;30778;53.574;7.770;2022-07-29T05:29:09;101868.34;;;13.87;44.33
45040;BME280;30778;53.574;7.770;2022-07-29T05:31:34;101871.56;;;13.96;44.36
45040;BME280;30778;53.574;7.770;2022-07-29T05:34:00;101865.13;;;14.03;44.25
45040;BME280;30778;53.574;7.770;2022-07-29T05:36:25;101872.19;;;14.02;44.15
45040;BME280;30778;53.574;7.770;2022-07-29T05:38:51;101877.66;;;13.96;44.23
45040;BME280;30778;53.574;7.770;2022-07-29T05:41:18;101876.88;;;14.16;44.25
45040;BME280;30778;53.574;7.770;2022-07-29T05:43:43;101867.78;;;14.25;43.89
45040;BME280;30778;53.574;7.770;2022-07-29T05:46:09;101873.56;;;14.34;44.13
45040;BME280;30778;53.574;7.770;2022-07-29T05:48:34;101870.84;;;14.36;44.09
45040;BME280;30778;53.574;7.770;2022-07-29T05:51:00;101874.88;;;14.23;44.46
45040;BME280;30778;53.574;7.770;2022-07-29T05:53:25;101876.84;;;14.40;44.00
45040;BME280;30778;53.574;7.770;2022-07-29T05:55:51;101878.47;;;14.44;44.11
45040;BME280;30778;53.574;7.770;2022-07-29T05:58:17;101883.41;;;14.51;44.06
45040;BME280;30778;53.574;7.770;2022-07-29T06:00:43;101876.13;;;14.58;43.88
45040;BME280;30778;53.574;7.770;2022-07-29T06:03:09;101873.50;;;14.58;43.62
45040;BME280;30778;53.574;7.770;2022-07-29T06:05:34;101873.25;;;14.85;43.48
45040;BME280;30778;53.574;7.770;2022-07-29T06:08:00;101873.78;;;15.13;42.94
45040;BME280;30778;53.574;7.770;2022-07-29T06:10:25;101880.78;;;15.35;42.33
45040;BME280;30778;53.574;7.770;2022-07-29T06:12:52;101879.97;;;15.53;41.64
45040;BME280;30778;53.574;7.770;2022-07-29T06:15:17;101878.25;;;15.52;41.88
45040;BME280;30778;53.574;7.770;2022-07-29T06:17:43;101881.28;;;15.43;41.74
45040;BME280;30778;53.574;7.770;2022-07-29T06:20:09;101879.44;;;15.45;41.54
45040;BME280;30778;53.574;7.770;2022-07-29T06:22:35;101880.28;;;15.66;40.98
45040;BME280;30778;53.574;7.770;2022-07-29T06:25:02;101878.47;;;15.67;41.34
45040;BME280;30778;53.574;7.770;2022-07-29T06:27:27;101879.31;;;15.86;40.84
45040;BME280;30778;53.574;7.770;2022-07-29T06:29:53;101880.00;;;15.91;41.14
45040;BME280;30778;53.574;7.770;2022-07-29T06:32:19;101878.63;;;16.02;40.86
45040;BME280;30778;53.574;7.770;2022-07-29T06:34:44;101870.59;;;16.41;39.79
45040;BME280;30778;53.574;7.770;2022-07-29T06:37:10;101870.88;;;16.71;39.73
45040;BME280;30778;53.574;7.770;2022-07-29T06:39:36;101873.91;;;17.16;38.72
45040;BME280;30778;53.574;7.770;2022-07-29T06:42:05;101878.13;;;17.53;37.38
45040;BME280;30778;53.574;7.770;2022-07-29T06:44:31;101868.50;;;18.16;36.57
45040;BME280;30778;53.574;7.770;2022-07-29T06:46:58;101869.66;;;18.58;35.92
45040;BME280;30778;53.574;7.770;2022-07-29T06:49:23;101858.31;;;18.56;35.42
45040;BME280;30778;53.574;7.770;2022-07-29T06:51:51;101861.44;;;18.16;36.75
45040;BME280;30778;53.574;7.770;2022-07-29T06:54:16;101863.66;;;17.60;36.98
45040;BME280;30778;53.574;7.770;2022-07-29T06:56:42;101872.41;;;17.28;38.64
45040;BME280;30778;53.574;7.770;2022-07-29T06:59:09;101860.47;;;17.20;38.51
45040;BME280;30778;53.574;7.770;2022-07-29T07:01:37;101863.38;;;16.81;38.65
45040;BME280;30778;53.574;7.770;2022-07-29T07:04:03;101860.13;;;16.57;39.23
45040;BME280;30778;53.574;7.770;2022-07-29T07:06:28;101860.22;;;16.73;39.78
45040;BME280;30778;53.574;7.770;2022-07-29T07:08:54;101866.97;;;16.61;39.75
45040;BME280;30778;53.574;7.770;2022-07-29T07:11:19;101867.72;;;16.46;40.08
45040;BME280;30778;53.574;7.770;2022-07-29T07:13:45;101873.34;;;16.57;39.47
45040;BME280;30778;53.574;7.770;2022-07-29T07:16:10;101876.13;;;16.54;39.87
45040;BME280;30778;53.574;7.770;2022-07-29T07:18:36;101872.59;;;16.90;39.87
45040;BME280;30778;53.574;7.770;2022-07-29T07:21:02;101867.16;;;16.93;39.26
45040;BME280;30778;53.574;7.770;2022-07-29T07:23:27;101873.28;;;17.11;38.98
45040;BME280;30778;53.574;7.770;2022-07-29T07:25:53;101867.66;;;17.34;39.53
45040;BME280;30778;53.574;7.770;2022-07-29T07:28:18;101856.84;;;17.72;38.80
45040;BME280;30778;53.574;7.770;2022-07-29T07:30:45;101857.16;;;17.98;36.53
45040;BME280;30778;53.574;7.770;2022-07-29T07:33:11;101858.28;;;18.10;36.62
45040;BME280;30778;53.574;7.770;2022-07-29T07:35:36;101863.66;;;17.92;36.75
45040;BME280;30778;53.574;7.770;2022-07-29T07:38:02;101866.31;;;18.24;37.28
45040;BME280;30778;53.574;7.770;2022-07-29T07:40:27;101866.41;;;18.22;36.29
45040;BME280;30778;53.574;7.770;2022-07-29T07:42:53;101873.22;;;17.95;36.82
45040;BME280;30778;53.574;7.770;2022-07-29T07:45:19;101869.47;;;17.83;37.27
45040;BME280;30778;53.574;7.770;2022-07-29T07:47:44;101873.78;;;18.16;36.86
45040;BME280;30778;53.574;7.770;2022-07-29T07:50:12;101871.34;;;18.13;36.84
45040;BME280;30778;53.574;7.770;2022-07-29T07:52:49;101869.59;;;18.12;37.09
45040;BME280;30778;53.574;7.770;2022-07-29T07:55:16;101876.13;;;18.22;37.54
45040;BME280;30778;53.574;7.770;2022-07-29T07:57:42;101875.22;;;18.53;36.70
45040;BME280;30778;53.574;7.770;2022-07-29T08:00:08;101864.88;;;18.95;36.21
45040;BME280;30778;53.574;7.770;2022-07-29T08:02:37;101870.22;;;19.23;35.74
45040;BME280;30778;53.574;7.770;2022-07-29T08:05:04;101861.69;;;19.47;35.17
45040;BME280;30778;53.574;7.770;2022-07-29T08:07:30;101861.38;;;19.51;34.01
45040;BME280;30778;53.574;7.770;2022-07-29T08:09:55;101864.34;;;19.33;35.12
45040;BME280;30778;53.574;7.770;2022-07-29T08:12:21;101856.84;;;19.54;36.06
45040;BME280;30778;53.574;7.770;2022-07-29T08:14:46;101857.91;;;20.34;33.65
45040;BME280;30778;53.574;7.770;2022-07-29T08:17:12;101852.09;;;22.20;31.12
45040;BME280;30778;53.574;7.770;2022-07-29T08:19:38;101855.41;;;23.16;29.58
45040;BME280;30778;53.574;7.770;2022-07-29T08:22:03;101856.31;;;22.46;29.40
45040;BME280;30778;53.574;7.770;2022-07-29T08:24:29;101846.91;;;21.81;31.25
45040;BME280;30778;53.574;7.770;2022-07-29T08:27:13;101851.25;;;21.82;31.61
45040;BME280;30778;53.574;7.770;2022-07-29T08:29:39;101857.41;;;22.20;31.29
45040;BME280;30778;53.574;7.770;2022-07-29T08:32:05;101858.88;;;22.48;30.10
45040;BME280;30778;53.574;7.770;2022-07-29T08:34:31;101847.69;;;22.78;29.56
45040;BME280;30778;53.574;7.770;2022-07-29T08:36:57;101860.56;;;23.74;29.37
45040;BME280;30778;53.574;7.770;2022-07-29T08:39:23;101853.84;;;24.46;27.67
45040;BME280;30778;53.574;7.770;2022-07-29T08:41:49;101854.41;;;25.13;26.26
45040;BME280;30778;53.574;7.770;2022-07-29T08:44:17;101858.75;;;24.30;27.21
45040;BME280;30778;53.574;7.770;2022-07-29T08:46:42;101861.94;;;23.57;29.10
45040;BME280;30778;53.574;7.770;2022-07-29T08:49:08;101855.75;;;23.91;28.69
45040;BME280;30778;53.574;7.770;2022-07-29T08:51:34;101859.84;;;23.95;28.30
45040;BME280;30778;53.574;7.770;2022-07-29T08:54:02;101859.66;;;24.08;27.66
45040;BME280;30778;53.574;7.770;2022-07-29T08:56:28;101858.78;;;25.14;28.14
45040;BME280;30778;53.574;7.770;2022-07-29T08:58:54;101852.00;;;26.49;24.85
45040;BME280;30778;53.574;7.770;2022-07-29T09:01:24;101851.69;;;28.02;22.25
45040;BME280;30778;53.574;7.770;2022-07-29T09:03:55;101840.38;;;30.47;20.19
45040;BME280;30778;53.574;7.770;2022-07-29T09:06:22;101846.97;;;31.16;18.89
45040;BME280;30778;53.574;7.770;2022-07-29T09:08:51;101841.50;;;29.87;19.93
45040;BME280;30778;53.574;7.770;2022-07-29T09:11:16;101843.56;;;29.42;20.64
45040;BME280;30778;53.574;7.770;2022-07-29T09:13:42;101845.06;;;29.02;21.76
45040;BME280;30778;53.574;7.770;2022-07-29T09:16:08;101846.44;;;27.37;22.00
45040;BME280;30778;53.574;7.770;2022-07-29T09:21:02;101842.84;;;26.42;23.88
45040;BME280;30778;53.574;7.770;2022-07-29T09:24:08;101840.50;;;27.33;22.25
45040;BME280;30778;53.574;7.770;2022-07-29T09:26:43;101842.69;;;26.73;23.92
45040;BME280;30778;53.574;7.770;2022-07-29T09:31:40;101846.88;;;25.37;24.71
45040;BME280;30778;53.574;7.770;2022-07-29T09:34:07;101845.31;;;24.41;26.11
45040;BME280;30778;53.574;7.770;2022-07-29T09:36:44;101851.63;;;23.87;27.46
45040;BME280;30778;53.574;7.770;2022-07-29T09:39:10;101847.28;;;23.52;28.16
45040;BME280;30778;53.574;7.770;2022-07-29T09:41:46;101859.50;;;23.20;28.66
45040;BME280;30778;53.574;7.770;2022-07-29T09:44:12;101849.78;;;22.86;29.24
45040;BME280;30778;53.574;7.770;2022-07-29T09:46:37;101853.06;;;23.00;29.30
45040;BME280;30778;53.574;7.770;2022-07-29T09:49:10;101850.28;;;22.91;29.25
45040;BME280;30778;53.574;7.770;2022-07-29T09:51:37;101844.59;;;22.60;29.50
45040;BME280;30778;53.574;7.770;2022-07-29T09:54:21;101844.56;;;22.73;29.20
45040;BME280;30778;53.574;7.770;2022-07-29T09:56:48;101841.19;;;22.93;29.10
45040;BME280;30778;53.574;7.770;2022-07-29T09:59:13;101841.69;;;23.10;28.93
45040;BME280;30778;53.574;7.770;2022-07-29T10:01:39;101840.00;;;23.09;29.45
45040;BME280;30778;53.574;7.770;2022-07-29T10:04:05;101836.56;;;22.73;31.02
45040;BME280;30778;53.574;7.770;2022-07-29T10:06:30;101829.09;;;22.54;31.61
45040;BME280;30778;53.574;7.770;2022-07-29T10:09:11;101837.03;;;22.43;31.89
45040;BME280;30778;53.574;7.770;2022-07-29T10:11:37;101844.69;;;22.12;32.27
45040;BME280;30778;53.574;7.770;2022-07-29T10:14:03;101836.91;;;22.09;32.30
45040;BME280;30778;53.574;7.770;2022-07-29T10:16:30;101837.97;;;22.30;31.87
45040;BME280;30778;53.574;7.770;2022-07-29T10:19:01;101835.47;;;22.40;31.99
45040;BME280;30778;53.574;7.770;2022-07-29T10:21:27;101843.59;;;22.14;32.69
45040;BME280;30778;53.574;7.770;2022-07-29T10:23:53;101836.28;;;22.29;32.06
45040;BME280;30778;53.574;7.770;2022-07-29T10:26:19;101833.50;;;22.31;32.33
45040;BME280;30778;53.574;7.770;2022-07-29T10:28:45;101831.25;;;22.84;31.09
45040;BME280;30778;53.574;7.770;2022-07-29T10:31:21;101837.06;;;23.00;30.39
45040;BME280;30778;53.574;7.770;2022-07-29T10:34:09;101835.66;;;23.19;29.84
45040;BME280;30778;53.574;7.770;2022-07-29T10:42:22;101835.66;;;23.41;29.77
45040;BME280;30778;53.574;7.770;2022-07-29T10:44:50;101827.38;;;23.56;29.71
45040;BME280;30778;53.574;7.770;2022-07-29T10:47:23;101829.31;;;23.54;30.29
45040;BME280;30778;53.574;7.770;2022-07-29T10:52:22;101822.75;;;23.69;29.48
45040;BME280;30778;53.574;7.770;2022-07-29T10:54:50;101824.16;;;23.96;30.27
45040;BME280;30778;53.574;7.770;2022-07-29T11:05:05;101818.56;;;23.99;29.13
45040;BME280;30778;53.574;7.770;2022-07-29T11:07:32;101820.34;;;23.66;29.77
45040;BME280;30778;53.574;7.770;2022-07-29T11:20:47;101808.03;;;24.18;28.72
45040;BME280;30778;53.574;7.770;2022-07-29T11:23:22;101809.59;;;24.53;28.11
45040;BME280;30778;53.574;7.770;2022-07-29T11:26:14;101805.53;;;24.59;28.15
45040;BME280;30778;53.574;7.770;2022-07-29T11:31:39;101801.03;;;24.80;27.86
45040;BME280;30778;53.574;7.770;2022-07-29T11:34:26;101795.00;;;24.57;27.56
45040;BME280;30778;53.574;7.770;2022-07-29T11:45:01;101795.16;;;25.67;25.69
45040;BME280;30778;53.574;7.770;2022-07-29T11:47:30;101800.53;;;25.27;25.45
45040;BME280;30778;53.574;7.770;2022-07-29T11:49:57;101799.47;;;25.49;25.72
45040;BME280;30778;53.574;7.770;2022-07-29T11:52:23;101785.03;;;25.91;24.61
45040;BME280;30778;53.574;7.770;2022-07-29T11:54:57;101801.34;;;24.87;25.67
45040;BME280;30778;53.574;7.770;2022-07-29T11:57:25;101801.25;;;24.14;26.64
45040;BME280;30778;53.574;7.770;2022-07-29T11:59:51;101802.41;;;23.57;26.94
45040;BME280;30778;53.574;7.770;2022-07-29T12:02:16;101799.44;;;23.71;26.88
45040;BME280;30778;53.574;7.770;2022-07-29T12:05:00;101795.66;;;23.85;27.82
45040;BME280;30778;53.574;7.770;2022-07-29T12:07:30;101807.63;;;24.02;26.60
45040;BME280;30778;53.574;7.770;2022-07-29T12:09:56;101798.91;;;24.00;27.75
45040;BME280;30778;53.574;7.770;2022-07-29T12:12:22;101797.50;;;24.80;27.14
45040;BME280;30778;53.574;7.770;2022-07-29T12:14:48;101792.53;;;25.37;26.74
45040;BME280;30778;53.574;7.770;2022-07-29T12:17:31;101787.28;;;25.85;24.66
45040;BME280;30778;53.574;7.770;2022-07-29T12:19:59;101782.19;;;25.63;26.10
45040;BME280;30778;53.574;7.770;2022-07-29T12:22:26;101782.66;;;25.78;25.87
45040;BME280;30778;53.574;7.770;2022-07-29T12:24:53;101773.47;;;25.61;26.11
45040;BME280;30778;53.574;7.770;2022-07-29T12:27:19;101779.09;;;25.97;25.04
45040;BME280;30778;53.574;7.770;2022-07-29T12:29:55;101784.75;;;26.33;25.58
45040;BME280;30778;53.574;7.770;2022-07-29T12:32:21;101792.44;;;26.55;25.22
45040;BME280;30778;53.574;7.770;2022-07-29T12:34:47;101783.31;;;26.48;25.16
45040;BME280;30778;53.574;7.770;2022-07-29T12:37:13;101780.00;;;26.74;24.93
45040;BME280;30778;53.574;7.770;2022-07-29T12:39:39;101790.38;;;26.96;24.59
45040;BME280;30778;53.574;7.770;2022-07-29T12:42:13;101778.97;;;26.94;22.72
45040;BME280;30778;53.574;7.770;2022-07-29T12:44:49;101779.81;;;27.22;24.72
45040;BME280;30778;53.574;7.770;2022-07-29T12:47:15;101781.31;;;26.97;23.09
45040;BME280;30778;53.574;7.770;2022-07-29T12:49:41;101777.59;;;27.18;23.36
45040;BME280;30778;53.574;7.770;2022-07-29T12:54:50;101772.84;;;27.02;24.18
45040;BME280;30778;53.574;7.770;2022-07-29T12:57:16;101769.34;;;26.54;24.34
45040;BME280;30778;53.574;7.770;2022-07-29T12:59:41;101778.69;;;26.11;25.80
45040;BME280;30778;53.574;7.770;2022-07-29T13:02:20;101770.94;;;24.88;26.22
45040;BME280;30778;53.574;7.770;2022-07-29T13:04:55;101774.66;;;23.92;27.64
45040;BME280;30778;53.574;7.770;2022-07-29T13:07:26;101777.59;;;23.77;28.06
45040;BME280;30778;53.574;7.770;2022-07-29T13:09:52;101775.50;;;23.92;28.09
45040;BME280;30778;53.574;7.770;2022-07-29T13:12:18;101770.97;;;24.04;27.73
45040;BME280;30778;53.574;7.770;2022-07-29T13:14:47;101771.63;;;24.17;27.15
45040;BME280;30778;53.574;7.770;2022-07-29T13:17:15;101774.31;;;24.17;27.76
45040;BME280;30778;53.574;7.770;2022-07-29T13:19:52;101772.25;;;23.77;27.23
45040;BME280;30778;53.574;7.770;2022-07-29T13:22:20;101769.03;;;23.62;27.63
45040;BME280;30778;53.574;7.770;2022-07-29T13:24:54;101766.56;;;23.27;27.67
45040;BME280;30778;53.574;7.770;2022-07-29T13:27:22;101764.94;;;23.25;28.11
45040;BME280;30778;53.574;7.770;2022-07-29T13:29:48;101771.03;;;23.15;27.85
45040;BME280;30778;53.574;7.770;2022-07-29T13:32:16;101770.19;;;22.92;28.15
45040;BME280;30778;53.574;7.770;2022-07-29T13:34:42;101770.41;;;22.89;28.05
45040;BME280;30778;53.574;7.770;2022-07-29T13:37:08;101772.00;;;22.80;28.72
45040;BME280;30778;53.574;7.770;2022-07-29T13:39:33;101766.81;;;22.90;28.34
45040;BME280;30778;53.574;7.770;2022-07-29T13:41:59;101758.44;;;22.95;28.51
45040;BME280;30778;53.574;7.770;2022-07-29T13:44:24;101764.72;;;22.83;28.96
45040;BME280;30778;53.574;7.770;2022-07-29T13:46:50;101758.81;;;22.90;28.11